createdAt,value
2022-09-13T19:39:18.876Z,45.30
2022-09-13T19:41:23.619Z,51.10
2022-09-13T19:43:28.277Z,41.80
2022-09-13T19:45:29.884Z,43.70
2022-09-13T19:49:53.669Z,45.60
2022-09-13T19:51:55.290Z,45.80
2022-09-13T19:53:58.618Z,46.00
2022-09-13T19:56:00.217Z,46.10
2022-09-13T19:58:01.784Z,46.30
2022-09-13T20:00:04.504Z,46.40
2022-09-13T20:02:06.887Z,46.50
2022-09-13T20:04:11.982Z,46.70
2022-09-13T20:06:14.025Z,46.80
2022-09-13T20:08:16.043Z,47.00
2022-09-13T20:10:17.656Z,47.10
2022-09-13T20:12:20.179Z,47.20
2022-09-13T20:14:22.280Z,47.20
2022-09-13T20:16:26.448Z,47.20
2022-09-13T20:18:32.159Z,47.20
2022-09-13T20:20:35.375Z,47.40
2022-09-13T20:22:36.965Z,47.30
2022-09-13T20:24:38.569Z,47.40
2022-09-13T20:26:40.151Z,47.50
2022-09-13T20:28:42.679Z,47.50
2022-09-13T20:30:56.201Z,47.70
2022-09-13T20:32:57.911Z,47.60
2022-09-13T20:35:01.125Z,47.70
2022-09-13T20:37:02.844Z,47.70
2022-09-13T20:39:06.083Z,47.70
2022-09-13T20:41:11.498Z,47.80
2022-09-13T20:43:14.397Z,47.90
2022-09-13T20:45:16.635Z,48.00
2022-09-13T20:47:18.254Z,48.00
2022-09-13T20:49:19.909Z,48.00
2022-09-13T20:51:24.330Z,48.10
2022-09-13T20:53:29.850Z,48.10
2022-09-13T20:55:32.956Z,48.10
2022-09-13T20:57:34.543Z,48.10
2022-09-13T20:59:36.194Z,48.10
2022-09-13T21:01:38.646Z,48.10
2022-09-13T21:03:42.636Z,48.20
2022-09-13T21:05:44.273Z,48.10
2022-09-13T21:08:04.393Z,48.20
2022-09-13T21:10:06.624Z,48.20
2022-09-13T21:12:08.914Z,48.20
2022-09-13T21:14:11.292Z,48.30
2022-09-13T21:16:15.512Z,48.30
2022-09-13T21:18:17.784Z,48.30
2022-09-13T21:20:19.377Z,48.40
2022-09-13T21:22:21.351Z,48.40
2022-09-13T21:24:23.029Z,48.50
2022-09-13T21:26:27.151Z,48.60
2022-09-13T21:28:28.971Z,48.60
2022-09-13T21:30:30.709Z,48.60
2022-09-13T21:32:32.363Z,48.60
2022-09-13T21:34:34.030Z,48.70
2022-09-13T21:36:36.082Z,48.70
2022-09-13T21:38:38.470Z,48.80
2022-09-13T21:40:41.129Z,48.80
2022-09-13T21:42:42.734Z,48.80
2022-09-13T21:44:45.018Z,48.80
2022-09-13T21:46:46.826Z,48.90
2022-09-13T21:48:50.975Z,48.80
2022-09-13T21:50:52.601Z,48.80
2022-09-13T21:52:54.186Z,48.80
2022-09-13T21:54:55.775Z,48.90
2022-09-13T21:56:58.042Z,48.90
2022-09-13T21:59:05.806Z,48.90
2022-09-13T22:01:12.534Z,48.90
2022-09-13T22:03:14.216Z,48.90
2022-09-13T22:05:15.891Z,49.00
2022-09-13T22:07:17.506Z,49.00
2022-09-13T22:09:20.612Z,49.10
2022-09-13T22:11:25.297Z,49.00
2022-09-13T22:13:26.936Z,49.00
2022-09-13T22:15:28.524Z,49.00
2022-09-13T22:17:30.600Z,49.00
2022-09-13T22:19:32.216Z,49.10
2022-09-13T22:21:36.070Z,49.00
2022-09-13T22:23:38.325Z,49.00
2022-09-13T22:25:42.083Z,49.10
2022-09-13T22:27:43.707Z,49.10
2022-09-13T22:29:45.384Z,49.10
2022-09-13T22:31:48.481Z,49.20
2022-09-13T22:33:51.170Z,49.20
2022-09-13T22:36:07.168Z,49.20
2022-09-13T22:38:09.002Z,49.20
2022-09-13T22:40:10.894Z,49.20
2022-09-13T22:42:12.615Z,49.20
2022-09-13T22:44:14.484Z,49.20
2022-09-13T22:46:37.355Z,49.30
2022-09-13T22:48:40.056Z,49.30
2022-09-13T22:50:41.769Z,49.20
2022-09-13T22:52:43.493Z,49.20
2022-09-13T22:54:46.130Z,49.20
2022-09-13T22:56:48.343Z,49.40
2022-09-13T22:58:54.289Z,49.40
2022-09-13T23:01:22.165Z,49.40
2022-09-13T23:03:23.846Z,49.50
2022-09-13T23:05:25.495Z,49.50
2022-09-13T23:07:27.369Z,49.40
2022-09-13T23:09:29.032Z,49.40
2022-09-13T23:11:33.449Z,49.40
2022-09-13T23:13:35.061Z,49.40
2022-09-13T23:15:36.651Z,49.40
2022-09-13T23:17:38.716Z,49.40
2022-09-13T23:19:40.468Z,49.40
2022-09-13T23:21:42.989Z,49.40
2022-09-13T23:23:44.869Z,49.40
2022-09-13T23:25:46.466Z,49.50
2022-09-13T23:27:48.062Z,49.50
2022-09-13T23:29:50.213Z,49.50
2022-09-13T23:31:52.165Z,49.50
2022-09-13T23:33:56.128Z,49.70
2022-09-13T23:35:58.440Z,49.60
2022-09-13T23:38:00.043Z,49.70
2022-09-13T23:40:03.065Z,49.70
2022-09-13T23:42:05.852Z,49.70
2022-09-13T23:44:07.745Z,49.70
2022-09-13T23:46:09.848Z,49.70
2022-09-13T23:48:11.560Z,49.70
2022-09-13T23:50:13.748Z,49.70
2022-09-13T23:52:15.392Z,49.70
2022-09-13T23:54:17.144Z,49.80
2022-09-13T23:56:19.292Z,49.80
2022-09-13T23:58:21.024Z,49.90
